sensor_id;sensor_type;location;lat;lon;timestamp;P1;durP1;ratioP1;P2;durP2;ratioP2
13345;SDS011;6742;48.036;15.780;2023-11-19T00:00:01;4.13;;;3.73;;
13345;SDS011;6742;48.036;15.780;2023-11-19T00:02:29;4.50;;;4.10;;
13345;SDS011;6742;48.036;15.780;2023-11-19T00:04:57;4.37;;;3.97;;
13345;SDS011;6742;48.036;15.780;2023-11-19T00:07:23;5.67;;;3.83;;
13345;SDS011;6742;48.036;15.780;2023-11-19T00:09:50;4.77;;;3.70;;
13345;SDS011;6742;48.036;15.780;2023-11-19T00:12:17;4.27;;;3.87;;
13345;SDS011;6742;48.036;15.780;2023-11-19T00:14:44;4.73;;;4.00;;
13345;SDS011;6742;48.036;15.780;2023-11-19T00:17:12;4.47;;;4.03;;
13345;SDS011;6742;48.036;15.780;2023-11-19T00:19:39;4.97;;;4.47;;
13345;SDS011;6742;48.036;15.780;2023-11-19T00:22:06;4.23;;;3.80;;
13345;SDS011;6742;48.036;15.780;2023-11-19T00:24:33;5.20;;;4.40;;
13345;SDS011;6742;48.036;15.780;2023-11-19T00:27:00;5.60;;;4.57;;
13345;SDS011;6742;48.036;15.780;2023-11-19T00:29:27;8.53;;;6.77;;
13345;SDS011;6742;48.036;15.780;2023-11-19T00:31:54;9.77;;;8.77;;
13345;SDS011;6742;48.036;15.780;2023-11-19T00:34:23;9.77;;;7.23;;
13345;SDS011;6742;48.036;15.780;2023-11-19T00:36:50;5.77;;;4.80;;
13345;SDS011;6742;48.036;15.780;2023-11-19T00:39:17;6.90;;;5.37;;
13345;SDS011;6742;48.036;15.780;2023-11-19T00:41:46;8.27;;;6.37;;
13345;SDS011;6742;48.036;15.780;2023-11-19T00:44:13;8.27;;;5.87;;
13345;SDS011;6742;48.036;15.780;2023-11-19T00:46:40;4.87;;;4.37;;
13345;SDS011;6742;48.036;15.780;2023-11-19T00:49:07;7.67;;;5.20;;
13345;SDS011;6742;48.036;15.780;2023-11-19T00:51:38;6.27;;;4.63;;
13345;SDS011;6742;48.036;15.780;2023-11-19T00:54:05;5.20;;;4.47;;
13345;SDS011;6742;48.036;15.780;2023-11-19T00:56:31;5.23;;;4.23;;
13345;SDS011;6742;48.036;15.780;2023-11-19T00:58:58;4.97;;;4.07;;
13345;SDS011;6742;48.036;15.780;2023-11-19T01:01:26;4.83;;;3.80;;
13345;SDS011;6742;48.036;15.780;2023-11-19T01:03:53;8.10;;;6.50;;
13345;SDS011;6742;48.036;15.780;2023-11-19T01:06:31;6.30;;;4.83;;
13345;SDS011;6742;48.036;15.780;2023-11-19T01:09:00;4.50;;;4.10;;
13345;SDS011;6742;48.036;15.780;2023-11-19T01:11:27;4.83;;;3.80;;
13345;SDS011;6742;48.036;15.780;2023-11-19T01:13:54;4.93;;;3.87;;
13345;SDS011;6742;48.036;15.780;2023-11-19T01:16:21;3.70;;;3.40;;
13345;SDS011;6742;48.036;15.780;2023-11-19T01:18:51;4.00;;;3.53;;
13345;SDS011;6742;48.036;15.780;2023-11-19T01:21:18;4.27;;;3.57;;
13345;SDS011;6742;48.036;15.780;2023-11-19T01:23:47;4.30;;;3.47;;
13345;SDS011;6742;48.036;15.780;2023-11-19T01:26:15;4.17;;;3.77;;
13345;SDS011;6742;48.036;15.780;2023-11-19T01:28:42;4.03;;;3.47;;
13345;SDS011;6742;48.036;15.780;2023-11-19T01:31:11;4.87;;;4.00;;
13345;SDS011;6742;48.036;15.780;2023-11-19T01:33:41;4.20;;;3.70;;
13345;SDS011;6742;48.036;15.780;2023-11-19T01:36:08;3.80;;;3.50;;
13345;SDS011;6742;48.036;15.780;2023-11-19T01:38:39;4.30;;;3.57;;
13345;SDS011;6742;48.036;15.780;2023-11-19T01:41:05;4.20;;;3.80;;
13345;SDS011;6742;48.036;15.780;2023-11-19T01:43:34;4.27;;;3.70;;
13345;SDS011;6742;48.036;15.780;2023-11-19T01:46:02;4.27;;;3.73;;
13345;SDS011;6742;48.036;15.780;2023-11-19T01:48:30;4.00;;;3.60;;
13345;SDS011;6742;48.036;15.780;2023-11-19T01:50:59;3.93;;;3.47;;
13345;SDS011;6742;48.036;15.780;2023-11-19T01:53:27;4.70;;;4.10;;
13345;SDS011;6742;48.036;15.780;2023-11-19T01:55:54;4.70;;;4.00;;
13345;SDS011;6742;48.036;15.780;2023-11-19T01:58:23;5.30;;;4.00;;
13345;SDS011;6742;48.036;15.780;2023-11-19T02:00:51;4.43;;;4.03;;
13345;SDS011;6742;48.036;15.780;2023-11-19T02:03:19;4.63;;;4.17;;
13345;SDS011;6742;48.036;15.780;2023-11-19T02:05:47;4.77;;;4.13;;
13345;SDS011;6742;48.036;15.780;2023-11-19T02:08:16;4.17;;;3.77;;
13345;SDS011;6742;48.036;15.780;2023-11-19T02:10:43;4.07;;;3.67;;
13345;SDS011;6742;48.036;15.780;2023-11-19T02:13:10;4.83;;;4.07;;
13345;SDS011;6742;48.036;15.780;2023-11-19T02:15:38;4.30;;;3.90;;
13345;SDS011;6742;48.036;15.780;2023-11-19T02:18:18;4.33;;;3.93;;
13345;SDS011;6742;48.036;15.780;2023-11-19T02:20:46;5.17;;;3.90;;
13345;SDS011;6742;48.036;15.780;2023-11-19T02:23:14;4.87;;;4.07;;
13345;SDS011;6742;48.036;15.780;2023-11-19T02:25:42;4.30;;;3.90;;
13345;SDS011;6742;48.036;15.780;2023-11-19T02:28:16;4.33;;;3.93;;
13345;SDS011;6742;48.036;15.780;2023-11-19T02:30:43;4.43;;;4.03;;
13345;SDS011;6742;48.036;15.780;2023-11-19T02:33:10;4.07;;;3.67;;
13345;SDS011;6742;48.036;15.780;2023-11-19T02:35:37;4.83;;;4.33;;
13345;SDS011;6742;48.036;15.780;2023-11-19T02:38:05;4.47;;;3.90;;
13345;SDS011;6742;48.036;15.780;2023-11-19T02:40:33;4.70;;;4.23;;
13345;SDS011;6742;48.036;15.780;2023-11-19T02:43:00;4.50;;;3.70;;
13345;SDS011;6742;48.036;15.780;2023-11-19T02:45:31;4.60;;;4.10;;
13345;SDS011;6742;48.036;15.780;2023-11-19T02:47:58;4.17;;;3.77;;
13345;SDS011;6742;48.036;15.780;2023-11-19T02:50:27;4.50;;;4.10;;
13345;SDS011;6742;48.036;15.780;2023-11-19T02:52:54;4.90;;;4.40;;
13345;SDS011;6742;48.036;15.780;2023-11-19T02:55:22;4.40;;;4.00;;
13345;SDS011;6742;48.036;15.780;2023-11-19T02:57:49;4.60;;;4.20;;
13345;SDS011;6742;48.036;15.780;2023-11-19T03:00:18;4.27;;;3.80;;
13345;SDS011;6742;48.036;15.780;2023-11-19T03:02:50;4.10;;;3.70;;
13345;SDS011;6742;48.036;15.780;2023-11-19T03:05:24;4.17;;;3.77;;
13345;SDS011;6742;48.036;15.780;2023-11-19T03:07:51;3.60;;;3.30;;
13345;SDS011;6742;48.036;15.780;2023-11-19T03:10:18;3.40;;;3.10;;
13345;SDS011;6742;48.036;15.780;2023-11-19T03:12:45;2.83;;;2.63;;
13345;SDS011;6742;48.036;15.780;2023-11-19T03:15:12;3.20;;;2.90;;
13345;SDS011;6742;48.036;15.780;2023-11-19T03:17:40;2.80;;;2.60;;
13345;SDS011;6742;48.036;15.780;2023-11-19T03:20:09;2.80;;;2.60;;
13345;SDS011;6742;48.036;15.780;2023-11-19T03:22:40;2.80;;;2.50;;
13345;SDS011;6742;48.036;15.780;2023-11-19T03:25:07;2.93;;;2.63;;
13345;SDS011;6742;48.036;15.780;2023-11-19T03:27:35;3.03;;;2.73;;
13345;SDS011;6742;48.036;15.780;2023-11-19T03:30:02;2.90;;;2.70;;
13345;SDS011;6742;48.036;15.780;2023-11-19T03:32:30;2.77;;;2.57;;
13345;SDS011;6742;48.036;15.780;2023-11-19T03:34:57;3.10;;;2.80;;
13345;SDS011;6742;48.036;15.780;2023-11-19T03:37:26;3.00;;;2.80;;
13345;SDS011;6742;48.036;15.780;2023-11-19T03:39:53;2.90;;;2.70;;
13345;SDS011;6742;48.036;15.780;2023-11-19T03:42:24;3.13;;;2.83;;
13345;SDS011;6742;48.036;15.780;2023-11-19T03:44:51;3.43;;;3.13;;
13345;SDS011;6742;48.036;15.780;2023-11-19T03:47:18;3.10;;;2.80;;
13345;SDS011;6742;48.036;15.780;2023-11-19T03:49:47;3.90;;;3.20;;
13345;SDS011;6742;48.036;15.780;2023-11-19T03:52:15;3.57;;;3.13;;
13345;SDS011;6742;48.036;15.780;2023-11-19T03:54:43;3.40;;;3.10;;
13345;SDS011;6742;48.036;15.780;2023-11-19T03:57:11;3.73;;;3.43;;
13345;SDS011;6742;48.036;15.780;2023-11-19T03:59:38;3.30;;;3.00;;
13345;SDS011;6742;48.036;15.780;2023-11-19T04:02:05;3.50;;;3.20;;
13345;SDS011;6742;48.036;15.780;2023-11-19T04:04:32;3.80;;;3.50;;
13345;SDS011;6742;48.036;15.780;2023-11-19T04:07:00;3.83;;;3.53;;
13345;SDS011;6742;48.036;15.780;2023-11-19T04:09:28;3.43;;;3.13;;
13345;SDS011;6742;48.036;15.780;2023-11-19T04:11:56;35.07;;;17.40;;
13345;SDS011;6742;48.036;15.780;2023-11-19T04:14:23;22.53;;;11.80;;
13345;SDS011;6742;48.036;15.780;2023-11-19T04:16:50;21.37;;;12.37;;
13345;SDS011;6742;48.036;15.780;2023-11-19T04:19:17;21.90;;;12.00;;
13345;SDS011;6742;48.036;15.780;2023-11-19T04:21:45;21.97;;;11.33;;
13345;SDS011;6742;48.036;15.780;2023-11-19T04:24:12;19.40;;;14.10;;
13345;SDS011;6742;48.036;15.780;2023-11-19T04:26:40;15.33;;;10.50;;
13345;SDS011;6742;48.036;15.780;2023-11-19T04:29:11;11.73;;;8.43;;
13345;SDS011;6742;48.036;15.780;2023-11-19T04:31:38;9.33;;;7.17;;
13345;SDS011;6742;48.036;15.780;2023-11-19T04:34:05;7.17;;;5.80;;
13345;SDS011;6742;48.036;15.780;2023-11-19T04:36:32;6.27;;;4.47;;
13345;SDS011;6742;48.036;15.780;2023-11-19T04:38:59;6.07;;;4.20;;
13345;SDS011;6742;48.036;15.780;2023-11-19T04:41:27;5.10;;;4.07;;
13345;SDS011;6742;48.036;15.780;2023-11-19T04:43:54;5.20;;;4.00;;
13345;SDS011;6742;48.036;15.780;2023-11-19T04:46:22;4.87;;;3.50;;
13345;SDS011;6742;48.036;15.780;2023-11-19T04:48:49;3.87;;;3.57;;
13345;SDS011;6742;48.036;15.780;2023-11-19T04:51:16;3.63;;;3.33;;
13345;SDS011;6742;48.036;15.780;2023-11-19T04:53:43;4.00;;;3.57;;
13345;SDS011;6742;48.036;15.780;2023-11-19T04:56:10;4.93;;;4.20;;
13345;SDS011;6742;48.036;15.780;2023-11-19T04:58:38;5.13;;;4.30;;
13345;SDS011;6742;48.036;15.780;2023-11-19T05:01:05;4.70;;;3.63;;
13345;SDS011;6742;48.036;15.780;2023-11-19T05:03:34;4.00;;;3.60;;
13345;SDS011;6742;48.036;15.780;2023-11-19T05:06:01;3.77;;;3.47;;
13345;SDS011;6742;48.036;15.780;2023-11-19T05:08:28;3.27;;;2.97;;
13345;SDS011;6742;48.036;15.780;2023-11-19T05:10:55;3.40;;;3.10;;
13345;SDS011;6742;48.036;15.780;2023-11-19T05:13:22;3.80;;;3.50;;
13345;SDS011;6742;48.036;15.780;2023-11-19T05:15:49;3.40;;;3.10;;
13345;SDS011;6742;48.036;15.780;2023-11-19T05:18:16;4.43;;;3.30;;
13345;SDS011;6742;48.036;15.780;2023-11-19T05:20:45;3.80;;;3.50;;
13345;SDS011;6742;48.036;15.780;2023-11-19T05:23:12;4.03;;;3.40;;
13345;SDS011;6742;48.036;15.780;2023-11-19T05:25:39;3.40;;;3.10;;
13345;SDS011;6742;48.036;15.780;2023-11-19T05:28:06;3.53;;;3.23;;
13345;SDS011;6742;48.036;15.780;2023-11-19T05:30:33;3.40;;;3.10;;
13345;SDS011;6742;48.036;15.780;2023-11-19T05:33:00;3.13;;;2.80;;
13345;SDS011;6742;48.036;15.780;2023-11-19T05:35:27;5.03;;;2.90;;
13345;SDS011;6742;48.036;15.780;2023-11-19T05:37:55;3.13;;;2.93;;
13345;SDS011;6742;48.036;15.780;2023-11-19T05:40:22;3.20;;;3.00;;
13345;SDS011;6742;48.036;15.780;2023-11-19T05:42:49;3.50;;;3.20;;
13345;SDS011;6742;48.036;15.780;2023-11-19T05:45:16;2.80;;;2.60;;
13345;SDS011;6742;48.036;15.780;2023-11-19T05:47:43;2.87;;;2.63;;
13345;SDS011;6742;48.036;15.780;2023-11-19T05:50:10;2.60;;;2.40;;
13345;SDS011;6742;48.036;15.780;2023-11-19T05:52:37;3.47;;;3.27;;
13345;SDS011;6742;48.036;15.780;2023-11-19T05:55:05;3.23;;;2.93;;
13345;SDS011;6742;48.036;15.780;2023-11-19T05:57:35;3.43;;;3.17;;
13345;SDS011;6742;48.036;15.780;2023-11-19T06:00:02;2.70;;;2.50;;
13345;SDS011;6742;48.036;15.780;2023-11-19T06:02:32;2.87;;;2.67;;
13345;SDS011;6742;48.036;15.780;2023-11-19T06:04:59;3.20;;;2.90;;
13345;SDS011;6742;48.036;15.780;2023-11-19T06:07:26;2.90;;;2.70;;
13345;SDS011;6742;48.036;15.780;2023-11-19T06:09:53;2.90;;;2.70;;
13345;SDS011;6742;48.036;15.780;2023-11-19T06:12:21;3.30;;;3.00;;
13345;SDS011;6742;48.036;15.780;2023-11-19T06:14:48;3.17;;;2.87;;
13345;SDS011;6742;48.036;15.780;2023-11-19T06:17:15;3.60;;;3.30;;
13345;SDS011;6742;48.036;15.780;2023-11-19T06:19:42;3.40;;;3.10;;
13345;SDS011;6742;48.036;15.780;2023-11-19T06:22:10;3.70;;;3.40;;
13345;SDS011;6742;48.036;15.780;2023-11-19T06:24:37;4.03;;;3.70;;
13345;SDS011;6742;48.036;15.780;2023-11-19T06:27:04;3.60;;;3.30;;
13345;SDS011;6742;48.036;15.780;2023-11-19T06:29:32;3.63;;;3.33;;
13345;SDS011;6742;48.036;15.780;2023-11-19T06:31:59;3.53;;;3.23;;
13345;SDS011;6742;48.036;15.780;2023-11-19T06:34:26;3.50;;;3.20;;
13345;SDS011;6742;48.036;15.780;2023-11-19T06:36:53;6.90;;;5.53;;
13345;SDS011;6742;48.036;15.780;2023-11-19T06:39:20;9.47;;;6.87;;
13345;SDS011;6742;48.036;15.780;2023-11-19T06:41:47;11.10;;;7.93;;
13345;SDS011;6742;48.036;15.780;2023-11-19T06:44:14;15.90;;;10.97;;
13345;SDS011;6742;48.036;15.780;2023-11-19T06:46:42;8.33;;;6.63;;
13345;SDS011;6742;48.036;15.780;2023-11-19T06:49:09;7.53;;;5.90;;
13345;SDS011;6742;48.036;15.780;2023-11-19T06:51:40;6.70;;;5.70;;
13345;SDS011;6742;48.036;15.780;2023-11-19T06:54:07;4.40;;;4.00;;
13345;SDS011;6742;48.036;15.780;2023-11-19T06:56:34;4.27;;;3.87;;
13345;SDS011;6742;48.036;15.780;2023-11-19T06:59:02;4.00;;;3.70;;
13345;SDS011;6742;48.036;15.780;2023-11-19T07:01:30;3.97;;;3.57;;
13345;SDS011;6742;48.036;15.780;2023-11-19T07:04:02;4.03;;;3.67;;
13345;SDS011;6742;48.036;15.780;2023-11-19T07:06:34;3.87;;;3.57;;
13345;SDS011;6742;48.036;15.780;2023-11-19T07:09:01;3.83;;;3.50;;
13345;SDS011;6742;48.036;15.780;2023-11-19T07:11:34;3.70;;;3.40;;
13345;SDS011;6742;48.036;15.780;2023-11-19T07:14:02;3.90;;;3.60;;
13345;SDS011;6742;48.036;15.780;2023-11-19T07:16:29;3.53;;;3.23;;
13345;SDS011;6742;48.036;15.780;2023-11-19T07:18:56;4.70;;;4.30;;
13345;SDS011;6742;48.036;15.780;2023-11-19T07:21:25;4.63;;;4.23;;
13345;SDS011;6742;48.036;15.780;2023-11-19T07:23:53;4.43;;;4.03;;
13345;SDS011;6742;48.036;15.780;2023-11-19T07:26:20;5.20;;;4.37;;
13345;SDS011;6742;48.036;15.780;2023-11-19T07:28:47;4.03;;;3.50;;
13345;SDS011;6742;48.036;15.780;2023-11-19T07:31:14;3.40;;;3.10;;
13345;SDS011;6742;48.036;15.780;2023-11-19T07:33:41;3.97;;;3.67;;
13345;SDS011;6742;48.036;15.780;2023-11-19T07:36:09;4.50;;;4.10;;
13345;SDS011;6742;48.036;15.780;2023-11-19T07:38:37;4.70;;;4.30;;
13345;SDS011;6742;48.036;15.780;2023-11-19T07:41:04;3.97;;;3.67;;
13345;SDS011;6742;48.036;15.780;2023-11-19T07:43:34;3.67;;;3.37;;
13345;SDS011;6742;48.036;15.780;2023-11-19T07:46:01;3.90;;;3.60;;
13345;SDS011;6742;48.036;15.780;2023-11-19T07:48:29;4.07;;;3.77;;
13345;SDS011;6742;48.036;15.780;2023-11-19T07:50:56;4.77;;;4.30;;
13345;SDS011;6742;48.036;15.780;2023-11-19T07:53:23;4.03;;;3.63;;
13345;SDS011;6742;48.036;15.780;2023-11-19T07:55:51;3.80;;;3.50;;
13345;SDS011;6742;48.036;15.780;2023-11-19T07:58:19;4.17;;;3.60;;
13345;SDS011;6742;48.036;15.780;2023-11-19T08:00:46;4.20;;;3.90;;
13345;SDS011;6742;48.036;15.780;2023-11-19T08:03:12;5.27;;;4.77;;
13345;SDS011;6742;48.036;15.780;2023-11-19T08:05:39;8.13;;;7.33;;
13345;SDS011;6742;48.036;15.780;2023-11-19T08:08:05;4.43;;;4.00;;
13345;SDS011;6742;48.036;15.780;2023-11-19T08:10:32;4.97;;;4.40;;
13345;SDS011;6742;48.036;15.780;2023-11-19T08:13:01;6.20;;;4.70;;
13345;SDS011;6742;48.036;15.780;2023-11-19T08:15:27;5.80;;;4.40;;
13345;SDS011;6742;48.036;15.780;2023-11-19T08:17:55;4.97;;;4.47;;
13345;SDS011;6742;48.036;15.780;2023-11-19T08:20:22;3.73;;;2.90;;
13345;SDS011;6742;48.036;15.780;2023-11-19T08:22:49;3.80;;;3.50;;
13345;SDS011;6742;48.036;15.780;2023-11-19T08:25:16;3.47;;;3.17;;
13345;SDS011;6742;48.036;15.780;2023-11-19T08:27:43;3.70;;;3.23;;
13345;SDS011;6742;48.036;15.780;2023-11-19T08:30:13;3.70;;;3.40;;
13345;SDS011;6742;48.036;15.780;2023-11-19T08:32:40;2.27;;;2.07;;
13345;SDS011;6742;48.036;15.780;2023-11-19T08:35:09;2.47;;;2.27;;
13345;SDS011;6742;48.036;15.780;2023-11-19T08:37:36;2.83;;;2.63;;
13345;SDS011;6742;48.036;15.780;2023-11-19T08:40:04;2.60;;;2.40;;
13345;SDS011;6742;48.036;15.780;2023-11-19T08:42:32;3.40;;;3.10;;
13345;SDS011;6742;48.036;15.780;2023-11-19T08:44:59;3.30;;;3.00;;
13345;SDS011;6742;48.036;15.780;2023-11-19T08:47:27;3.17;;;2.87;;
13345;SDS011;6742;48.036;15.780;2023-11-19T08:49:54;2.50;;;2.30;;
13345;SDS011;6742;48.036;15.780;2023-11-19T08:52:21;2.50;;;2.30;;
13345;SDS011;6742;48.036;15.780;2023-11-19T08:54:48;1.70;;;1.60;;
13345;SDS011;6742;48.036;15.780;2023-11-19T08:57:15;1.67;;;1.57;;
13345;SDS011;6742;48.036;15.780;2023-11-19T08:59:42;1.70;;;1.60;;
13345;SDS011;6742;48.036;15.780;2023-11-19T09:02:10;1.60;;;1.50;;
13345;SDS011;6742;48.036;15.780;2023-11-19T09:04:39;1.53;;;1.43;;
13345;SDS011;6742;48.036;15.780;2023-11-19T09:07:06;1.50;;;1.40;;
13345;SDS011;6742;48.036;15.780;2023-11-19T09:09:34;1.70;;;1.60;;
13345;SDS011;6742;48.036;15.780;2023-11-19T09:12:01;1.60;;;1.50;;
13345;SDS011;6742;48.036;15.780;2023-11-19T09:14:28;2.10;;;1.90;;
13345;SDS011;6742;48.036;15.780;2023-11-19T09:16:55;2.00;;;1.90;;
13345;SDS011;6742;48.036;15.780;2023-11-19T09:19:23;1.70;;;1.60;;
13345;SDS011;6742;48.036;15.780;2023-11-19T09:21:52;1.70;;;1.60;;
13345;SDS011;6742;48.036;15.780;2023-11-19T09:24:19;1.70;;;1.60;;
13345;SDS011;6742;48.036;15.780;2023-11-19T09:26:46;1.50;;;1.40;;
13345;SDS011;6742;48.036;15.780;2023-11-19T09:29:13;1.60;;;1.50;;
13345;SDS011;6742;48.036;15.780;2023-11-19T09:31:41;1.33;;;1.23;;
13345;SDS011;6742;48.036;15.780;2023-11-19T09:34:08;1.60;;;1.50;;
13345;SDS011;6742;48.036;15.780;2023-11-19T09:36:35;1.30;;;1.20;;
13345;SDS011;6742;48.036;15.780;2023-11-19T09:39:03;1.30;;;1.20;;
13345;SDS011;6742;48.036;15.780;2023-11-19T09:41:33;1.60;;;1.50;;
13345;SDS011;6742;48.036;15.780;2023-11-19T09:44:00;1.47;;;1.37;;
13345;SDS011;6742;48.036;15.780;2023-11-19T09:46:27;1.70;;;1.60;;
13345;SDS011;6742;48.036;15.780;2023-11-19T09:48:56;2.13;;;1.93;;
13345;SDS011;6742;48.036;15.780;2023-11-19T09:51:24;2.27;;;2.07;;
13345;SDS011;6742;48.036;15.780;2023-11-19T09:53:51;2.83;;;2.33;;
13345;SDS011;6742;48.036;15.780;2023-11-19T09:56:20;2.83;;;2.10;;
13345;SDS011;6742;48.036;15.780;2023-11-19T09:58:47;3.50;;;3.10;;
13345;SDS011;6742;48.036;15.780;2023-11-19T10:01:14;3.47;;;3.17;;
13345;SDS011;6742;48.036;15.780;2023-11-19T10:03:41;3.40;;;3.10;;
13345;SDS011;6742;48.036;15.780;2023-11-19T10:06:11;3.60;;;3.30;;
13345;SDS011;6742;48.036;15.780;2023-11-19T10:08:38;4.28;;;3.53;;
13345;SDS011;6742;48.036;15.780;2023-11-19T10:11:05;3.83;;;3.53;;
13345;SDS011;6742;48.036;15.780;2023-11-19T10:13:35;3.47;;;3.15;;
13345;SDS011;6742;48.036;15.780;2023-11-19T10:16:04;4.57;;;3.80;;
13345;SDS011;6742;48.036;15.780;2023-11-19T10:18:34;5.13;;;4.43;;
13345;SDS011;6742;48.036;15.780;2023-11-19T10:21:03;5.53;;;4.40;;
13345;SDS011;6742;48.036;15.780;2023-11-19T10:23:41;5.78;;;5.28;;
13345;SDS011;6742;48.036;15.780;2023-11-19T10:26:15;5.05;;;4.65;;
13345;SDS011;6742;48.036;15.780;2023-11-19T10:28:43;3.35;;;2.75;;
13345;SDS011;6742;48.036;15.780;2023-11-19T10:31:11;3.00;;;2.70;;
13345;SDS011;6742;48.036;15.780;2023-11-19T10:33:39;2.50;;;2.30;;
13345;SDS011;6742;48.036;15.780;2023-11-19T10:36:06;2.75;;;2.55;;
13345;SDS011;6742;48.036;15.780;2023-11-19T10:38:33;2.70;;;2.50;;
13345;SDS011;6742;48.036;15.780;2023-11-19T10:41:00;4.18;;;3.72;;
13345;SDS011;6742;48.036;15.780;2023-11-19T10:43:27;3.38;;;3.00;;
13345;SDS011;6742;48.036;15.780;2023-11-19T10:45:56;4.20;;;3.55;;
13345;SDS011;6742;48.036;15.780;2023-11-19T10:48:35;3.20;;;2.90;;
13345;SDS011;6742;48.036;15.780;2023-11-19T10:51:02;3.58;;;3.05;;
13345;SDS011;6742;48.036;15.780;2023-11-19T10:53:32;3.97;;;3.15;;
13345;SDS011;6742;48.036;15.780;2023-11-19T10:56:02;3.47;;;2.45;;
13345;SDS011;6742;48.036;15.780;2023-11-19T10:58:33;2.20;;;2.00;;
13345;SDS011;6742;48.036;15.780;2023-11-19T11:01:07;2.80;;;2.50;;
13345;SDS011;6742;48.036;15.780;2023-11-19T11:03:39;4.72;;;2.83;;
13345;SDS011;6742;48.036;15.780;2023-11-19T11:06:06;2.97;;;2.50;;
13345;SDS011;6742;48.036;15.780;2023-11-19T11:08:35;3.00;;;2.30;;
13345;SDS011;6742;48.036;15.780;2023-11-19T11:11:05;3.03;;;2.67;;
13345;SDS011;6742;48.036;15.780;2023-11-19T11:13:35;7.93;;;5.40;;
13345;SDS011;6742;48.036;15.780;2023-11-19T11:16:09;7.25;;;5.65;;
13345;SDS011;6742;48.036;15.780;2023-11-19T11:18:36;3.20;;;2.88;;
13345;SDS011;6742;48.036;15.780;2023-11-19T11:21:04;2.25;;;1.83;;
13345;SDS011;6742;48.036;15.780;2023-11-19T11:23:52;1.73;;;1.55;;
13345;SDS011;6742;48.036;15.780;2023-11-19T11:26:33;1.60;;;1.25;;
13345;SDS011;6742;48.036;15.780;2023-11-19T11:29:10;2.15;;;1.40;;
13345;SDS011;6742;48.036;15.780;2023-11-19T11:31:52;1.50;;;1.25;;
13345;SDS011;6742;48.036;15.780;2023-11-19T11:34:31;1.30;;;1.20;;
13345;SDS011;6742;48.036;15.780;2023-11-19T11:37:18;1.70;;;1.60;;
13345;SDS011;6742;48.036;15.780;2023-11-19T11:39:49;1.98;;;1.40;;
13345;SDS011;6742;48.036;15.780;2023-11-19T11:42:32;2.20;;;1.60;;
13345;SDS011;6742;48.036;15.780;2023-11-19T11:45:03;1.33;;;1.23;;
13345;SDS011;6742;48.036;15.780;2023-11-19T11:50:52;1.60;;;1.10;;
13345;SDS011;6742;48.036;15.780;2023-11-19T11:53:21;1.50;;;1.40;;
13345;SDS011;6742;48.036;15.780;2023-11-19T11:55:53;2.90;;;2.60;;
13345;SDS011;6742;48.036;15.780;2023-11-19T11:58:25;4.78;;;4.10;;
13345;SDS011;6742;48.036;15.780;2023-11-19T12:00:56;3.60;;;3.30;;
13345;SDS011;6742;48.036;15.780;2023-11-19T12:03:26;2.40;;;2.20;;
13345;SDS011;6742;48.036;15.780;2023-11-19T12:05:54;2.38;;;1.77;;
13345;SDS011;6742;48.036;15.780;2023-11-19T12:08:24;1.30;;;1.17;;
13345;SDS011;6742;48.036;15.780;2023-11-19T12:10:52;1.30;;;1.17;;
13345;SDS011;6742;48.036;15.780;2023-11-19T12:13:23;1.63;;;1.10;;
13345;SDS011;6742;48.036;15.780;2023-11-19T12:16:09;1.20;;;1.10;;
13345;SDS011;6742;48.036;15.780;2023-11-19T12:18:39;1.50;;;1.30;;
13345;SDS011;6742;48.036;15.780;2023-11-19T12:21:07;1.83;;;1.50;;
13345;SDS011;6742;48.036;15.780;2023-11-19T12:23:44;1.60;;;1.50;;
13345;SDS011;6742;48.036;15.780;2023-11-19T12:28:59;1.50;;;1.40;;
13345;SDS011;6742;48.036;15.780;2023-11-19T12:31:28;1.17;;;1.08;;
13345;SDS011;6742;48.036;15.780;2023-11-19T12:33:57;1.20;;;1.10;;
13345;SDS011;6742;48.036;15.780;2023-11-19T12:36:25;1.20;;;1.10;;
13345;SDS011;6742;48.036;15.780;2023-11-19T12:38:52;2.35;;;1.40;;
13345;SDS011;6742;48.036;15.780;2023-11-19T12:41:20;1.30;;;1.20;;
13345;SDS011;6742;48.036;15.780;2023-11-19T12:43:48;1.58;;;1.10;;
13345;SDS011;6742;48.036;15.780;2023-11-19T12:46:19;1.23;;;1.10;;
13345;SDS011;6742;48.036;15.780;2023-11-19T12:48:47;1.58;;;1.25;;
13345;SDS011;6742;48.036;15.780;2023-11-19T12:51:16;2.08;;;1.08;;
13345;SDS011;6742;48.036;15.780;2023-11-19T12:53:49;1.40;;;1.30;;
13345;SDS011;6742;48.036;15.780;2023-11-19T12:56:19;1.23;;;1.13;;
13345;SDS011;6742;48.036;15.780;2023-11-19T12:58:47;1.40;;;1.30;;
13345;SDS011;6742;48.036;15.780;2023-11-19T13:01:15;1.30;;;1.20;;
13345;SDS011;6742;48.036;15.780;2023-11-19T13:03:44;1.25;;;1.15;;
13345;SDS011;6742;48.036;15.780;2023-11-19T13:06:12;1.63;;;1.45;;
13345;SDS011;6742;48.036;15.780;2023-11-19T13:08:42;1.15;;;1.05;;
13345;SDS011;6742;48.036;15.780;2023-11-19T13:11:10;1.50;;;1.40;;
13345;SDS011;6742;48.036;15.780;2023-11-19T13:13:54;1.40;;;1.30;;
13345;SDS011;6742;48.036;15.780;2023-11-19T13:16:21;1.50;;;1.40;;
13345;SDS011;6742;48.036;15.780;2023-11-19T13:18:48;1.80;;;1.60;;
13345;SDS011;6742;48.036;15.780;2023-11-19T13:21:15;1.30;;;1.20;;
13345;SDS011;6742;48.036;15.780;2023-11-19T13:23:44;1.27;;;1.17;;
13345;SDS011;6742;48.036;15.780;2023-11-19T13:26:11;1.92;;;1.30;;
13345;SDS011;6742;48.036;15.780;2023-11-19T13:28:38;1.30;;;1.20;;
13345;SDS011;6742;48.036;15.780;2023-11-19T13:31:05;1.20;;;1.10;;
13345;SDS011;6742;48.036;15.780;2023-11-19T13:33:32;1.63;;;1.30;;
13345;SDS011;6742;48.036;15.780;2023-11-19T13:35:59;1.38;;;1.27;;
13345;SDS011;6742;48.036;15.780;2023-11-19T13:38:30;2.15;;;1.50;;
13345;SDS011;6742;48.036;15.780;2023-11-19T13:40:59;3.10;;;2.78;;
13345;SDS011;6742;48.036;15.780;2023-11-19T13:43:26;2.83;;;2.35;;
13345;SDS011;6742;48.036;15.780;2023-11-19T13:45:54;1.70;;;1.60;;
13345;SDS011;6742;48.036;15.780;2023-11-19T13:48:21;2.15;;;1.95;;
13345;SDS011;6742;48.036;15.780;2023-11-19T13:50:48;1.73;;;1.55;;
13345;SDS011;6742;48.036;15.780;2023-11-19T13:53:15;1.40;;;1.30;;
13345;SDS011;6742;48.036;15.780;2023-11-19T13:55:42;1.35;;;1.20;;
13345;SDS011;6742;48.036;15.780;2023-11-19T13:58:10;1.50;;;1.40;;
13345;SDS011;6742;48.036;15.780;2023-11-19T14:00:37;1.50;;;1.40;;
13345;SDS011;6742;48.036;15.780;2023-11-19T14:03:07;2.85;;;2.30;;
13345;SDS011;6742;48.036;15.780;2023-11-19T14:05:35;1.75;;;1.25;;
13345;SDS011;6742;48.036;15.780;2023-11-19T14:08:02;3.03;;;1.60;;
13345;SDS011;6742;48.036;15.780;2023-11-19T14:10:36;1.85;;;1.60;;
13345;SDS011;6742;48.036;15.780;2023-11-19T14:13:05;1.58;;;1.33;;
13345;SDS011;6742;48.036;15.780;2023-11-19T14:15:33;1.70;;;1.60;;
13345;SDS011;6742;48.036;15.780;2023-11-19T14:18:01;2.58;;;2.38;;
13345;SDS011;6742;48.036;15.780;2023-11-19T14:20:28;1.75;;;1.60;;
13345;SDS011;6742;48.036;15.780;2023-11-19T14:22:55;1.80;;;1.70;;
13345;SDS011;6742;48.036;15.780;2023-11-19T14:25:22;2.00;;;1.52;;
13345;SDS011;6742;48.036;15.780;2023-11-19T14:27:49;1.33;;;1.23;;
13345;SDS011;6742;48.036;15.780;2023-11-19T14:30:17;1.58;;;1.35;;
13345;SDS011;6742;48.036;15.780;2023-11-19T14:32:45;2.17;;;1.70;;
13345;SDS011;6742;48.036;15.780;2023-11-19T14:35:13;1.85;;;1.70;;
13345;SDS011;6742;48.036;15.780;2023-11-19T14:37:40;2.20;;;2.00;;
13345;SDS011;6742;48.036;15.780;2023-11-19T14:40:07;2.83;;;2.17;;
13345;SDS011;6742;48.036;15.780;2023-11-19T14:42:36;2.65;;;2.30;;
13345;SDS011;6742;48.036;15.780;2023-11-19T14:45:04;3.05;;;2.75;;
13345;SDS011;6742;48.036;15.780;2023-11-19T14:47:32;3.45;;;3.15;;
13345;SDS011;6742;48.036;15.780;2023-11-19T14:50:00;3.33;;;3.03;;
13345;SDS011;6742;48.036;15.780;2023-11-19T14:52:28;3.75;;;3.05;;
13345;SDS011;6742;48.036;15.780;2023-11-19T14:54:55;3.13;;;2.92;;
13345;SDS011;6742;48.036;15.780;2023-11-19T14:57:22;3.40;;;3.17;;
13345;SDS011;6742;48.036;15.780;2023-11-19T14:59:48;4.35;;;3.33;;